METAR Data
IDs: Format: Raw Decoded Include TAF

Data at: 1842 UTC 16 Oct 2021

KBWD 161835Z AUTO 01009KT 10SM CLR 20/M02 A3041 RMK AO1
KBWD 161815Z AUTO 04006G15KT 010V070 10SM CLR 20/M01 A3041 RMK AO1
KBWD 161755Z AUTO 01008KT 330V050 10SM CLR 20/M01 A3043 RMK AO1
KBWD 161735Z AUTO 01008KT 10SM CLR 19/M01 A3044 RMK AO1
KBWD 161715Z AUTO 06008KT 10SM CLR 19/M02 A3044 RMK AO1
KBWD 161655Z AUTO 06008G15KT 10SM CLR 19/M02 A3044 RMK AO1
KBWD 161635Z AUTO 04005KT 10SM CLR 19/M01 A3044 RMK AO1
KBWD 161615Z AUTO 02010G14KT 10SM CLR 19/M02 A3044 RMK AO1
KBWD 161555Z AUTO 04007KT 10SM CLR 18/00 A3044 RMK AO1
KBWD 161535Z AUTO 01004KT 10SM CLR 17/04 A3044 RMK AO1
KBWD 161515Z AUTO 29004KT 10SM CLR 17/06 A3044 RMK AO1
KBWD 161455Z AUTO 00000KT 10SM CLR 15/06 A3043 RMK AO1
KBWD 161435Z AUTO 34004KT 10SM CLR 13/06 A3043 RMK AO1
KBWD 161415Z AUTO 33003KT 10SM CLR 12/05 A3042 RMK AO1
KBWD 161355Z AUTO 00000KT 10SM CLR 10/06 A3041 RMK AO1
KBWD 161335Z AUTO 33003KT 10SM CLR 09/05 A3040 RMK AO1
KBWD 161315Z AUTO 32003KT 1 1/4SM CLR 08/05 A3040 RMK AO1
KBWD 161255Z AUTO 34003KT 9SM CLR 08/05 A3038 RMK AO1
KBWD 161235Z AUTO 32004KT 3/4SM VV005 08/04 A3038 RMK AO1
KBWD 161215Z AUTO 03003KT 10SM CLR 10/03 A3038 RMK AO1
KBWD 161155Z AUTO 02005KT 10SM CLR 10/04 A3037 RMK AO1
KBWD 161135Z AUTO 02007KT 10SM CLR 11/04 A3036 RMK AO1
KBWD 161115Z AUTO 02010KT 10SM CLR 11/04 A3035 RMK AO1
KBWD 161055Z AUTO 35003KT 10SM CLR 11/04 A3034 RMK AO1
KBWD 161035Z AUTO 02004KT 10SM CLR 08/05 A3034 RMK AO1
KBWD 161015Z AUTO 00000KT 10SM CLR 08/05 A3034 RMK AO1
KBWD 160955Z AUTO 00000KT 10SM CLR 07/05 A3034 RMK AO1
KBWD 160935Z AUTO 00000KT 10SM CLR 07/05 A3034 RMK AO1
KBWD 160915Z AUTO 00000KT 10SM CLR 07/04 A3034 RMK AO1
KBWD 160855Z AUTO 33003KT 10SM CLR 08/06 A3034 RMK AO1
KBWD 160835Z AUTO 00000KT 10SM CLR 08/06 A3034 RMK AO1
KBWD 160815Z AUTO 00000KT 10SM CLR 08/05 A3034 RMK AO1
KBWD 160755Z AUTO 00000KT 10SM CLR 09/06 A3034 RMK AO1
KBWD 160735Z AUTO 00000KT 9SM CLR 09/06 A3034 RMK AO1
KBWD 160715Z AUTO 00000KT 10SM CLR 08/05 A3034 RMK AO1
KBWD 160655Z AUTO 01003KT 10SM CLR 12/05 A3033 RMK AO1
KBWD 160635Z AUTO 36005KT 10SM CLR 12/05 A3032 RMK AO1
KBWD 160615Z AUTO 01005KT 10SM CLR 12/05 A3032 RMK AO1
KBWD 160555Z AUTO 01005KT 10SM CLR 12/05 A3032 RMK AO1
KBWD 160535Z AUTO 35003KT 10SM CLR 10/06 A3032 RMK AO1
KBWD 160515Z AUTO 21003KT 10SM CLR 09/06 A3032 RMK AO1
KBWD 160455Z AUTO 00000KT 10SM CLR 12/06 A3031 RMK AO1
KBWD 160435Z AUTO 01003KT 9SM CLR 13/05 A3031 RMK AO1
KBWD 160415Z AUTO 36003KT 10SM CLR 14/05 A3030 RMK AO1
KBWD 160355Z AUTO 36005KT 10SM FEW039 14/05 A3030 RMK AO1
KBWD 160335Z AUTO 36007KT 10SM CLR 15/05 A3029 RMK AO1
KBWD 160315Z AUTO 36010KT 10SM CLR 15/05 A3028 RMK AO1
KBWD 160255Z AUTO 36010KT 10SM CLR 15/05 A3026 RMK AO1
KBWD 160235Z AUTO 36006KT 10SM CLR 15/05 A3026 RMK AO1
KBWD 160215Z AUTO 01006KT 10SM CLR 15/06 A3025 RMK AO1
KBWD 160155Z AUTO 01006KT 10SM FEW040 16/07 A3024 RMK AO1
KBWD 160135Z AUTO 01005KT 10SM FEW042 16/07 A3023 RMK AO1
KBWD 160115Z AUTO 02003KT 10SM CLR 17/06 A3022 RMK AO1
KBWD 160055Z AUTO 01006KT 10SM CLR 18/06 A3020 RMK AO1
KBWD 160035Z AUTO 36009KT 10SM CLR 18/05 A3019 RMK AO1
KBWD 160015Z AUTO 35011G17KT 10SM CLR 19/05 A3018 RMK AO1
KBWD 152355Z AUTO 36009G18KT 10SM CLR 20/05 A3018 RMK AO1
KBWD 152315Z AUTO 35016G22KT 10SM CLR 21/05 A3016 RMK AO1
KBWD 152255Z AUTO 35017G21KT 10SM CLR 22/06 A3015 RMK AO1
KBWD 152235Z AUTO 36013G21KT 10SM CLR 22/07 A3014 RMK AO1
KBWD 152215Z AUTO 01018G23KT 10SM CLR 22/07 A3014 RMK AO1
KBWD 152155Z AUTO 36012G21KT 10SM CLR 22/07 A3013 RMK AO1
KBWD 152135Z AUTO 35017G24KT 10SM CLR 22/07 A3013 RMK AO1
KBWD 152115Z AUTO 03012G20KT 10SM CLR 23/08 A3013 RMK AO1
KBWD 152055Z AUTO 36014G21KT 10SM CLR 23/09 A3013 RMK AO1
KBWD 152035Z AUTO 35013G22KT 10SM CLR 23/09 A3012 RMK AO1
KBWD 152015Z AUTO 34020G25KT 10SM CLR 23/09 A3012 RMK AO1
KBWD 151955Z AUTO 02015G21KT 10SM CLR 23/10 A3011 RMK AO1
KBWD 151935Z AUTO 35016G24KT 10SM CLR 23/10 A3012 RMK AO1
KBWD 151915Z AUTO 36017G21KT 10SM CLR 22/10 A3012 RMK AO1
KBWD 151855Z AUTO 34019G23KT 10SM CLR 22/11 A3012 RMK AO1
KBWD 151835Z AUTO 34015G20KT 10SM CLR 22/11 A3012 RMK AO1
KBWD 151815Z AUTO 34012G19KT 10SM CLR 21/12 A3013 RMK AO1
KBWD 151755Z AUTO 34017G22KT 10SM SCT022 20/12 A3013 RMK AO1
KBWD 151735Z AUTO 35016G20KT 10SM OVC020 19/13 A3013 RMK AO1
KBWD 151715Z AUTO 33014KT 10SM OVC016 17/13 A3014 RMK AO1
KBWD 151655Z AUTO 33012G17KT 10SM OVC016 17/13 A3013 RMK AO1
KBWD 151635Z AUTO 34016G20KT 10SM OVC016 17/13 A3013 RMK AO1
KBWD 151615Z AUTO 34014G18KT 10SM OVC016 17/12 A3011 RMK AO1
KBWD 151555Z AUTO 35011G18KT 10SM OVC016 17/12 A3011 RMK AO1
KBWD 151535Z AUTO 34014KT 10SM BKN016 17/11 A3010 RMK AO1
KBWD 151515Z AUTO 33018KT 10SM FEW016 17/11 A3008 RMK AO1
KBWD 151455Z AUTO 33018G24KT 10SM CLR 16/10 A3007 RMK AO1
KBWD 151435Z AUTO 34016G21KT 10SM CLR 16/11 A3005 RMK AO1
KBWD 151415Z AUTO 34010KT 8SM CLR 16/12 A3004 RMK AO1
KBWD 151355Z AUTO 32011KT 10SM FEW021 16/15 A3003 RMK AO1
KBWD 151335Z AUTO 32012KT 10SM SCT017 BKN022 15/15 A3002 RMK AO1
KBWD 151315Z AUTO 32012KT 10SM FEW009 BKN015 OVC020 16/16 A3000 RMK AO1
KBWD 151255Z AUTO 31007KT 7SM SCT002 BKN017 OVC021 20/20 A2997 RMK AO1
KBWD 151235Z AUTO 32006KT 3/4SM OVC002 20/20 A2996 RMK AO1
KBWD 151215Z AUTO 23003KT 1SM OVC002 20/20 A2995 RMK AO1
KBWD 151155Z AUTO 21003KT 1 1/4SM OVC002 20/20 A2994 RMK AO1
KBWD 151135Z AUTO 18005KT 3/4SM OVC002 20/20 A2993 RMK AO1
KBWD 151115Z AUTO 17006KT 3/4SM OVC002 20/20 A2992 RMK AO1
KBWD 151055Z AUTO 16005KT 1 1/4SM OVC002 20/20 A2991 RMK AO1
KBWD 151035Z AUTO 16007KT 1SM OVC002 20/20 A2990 RMK AO1
KBWD 151015Z AUTO 16008KT 1/2SM OVC002 20/20 A2990 RMK AO1
KBWD 150955Z AUTO 15009KT 2 1/2SM BKN002 20/20 A2990 RMK AO1
KBWD 150935Z AUTO 14005KT 1SM OVC002 19/19 A2990 RMK AO1
KBWD 150915Z AUTO 12003KT 3/4SM OVC002 19/19 A2990 RMK AO1
KBWD 150855Z AUTO 00000KT 1 1/2SM OVC002 19/19 A2990 RMK AO1
KBWD 150835Z AUTO 16004KT 5SM OVC002 19/19 A2990 RMK AO1
KBWD 150815Z AUTO 00000KT 9SM SCT004 19/19 A2990 RMK AO1
KBWD 150755Z AUTO 00000KT 3SM CLR 19/19 A2989 RMK AO1
KBWD 150735Z AUTO 14003KT 5SM CLR 19/19 A2989 RMK AO1
KBWD 150715Z AUTO 00000KT 9SM CLR 19/19 A2988 RMK AO1
KBWD 150655Z AUTO 00000KT 10SM CLR 19/19 A2988 RMK AO1